Bitflower — SBJE — position and weather

sailwx.info

Track history (hours):
 
Tides and Currents Weather Stations Pressure Air Temp Water Temp Dewpoint Dewpoint Depression Visibility Wind Speed Wind Dir Waves Ship Positions

Bitflower

Last reported at 2014-Dec-20 05:33 UTC. Time now 2014-Dec-20 06:35 UTC.
Position N 51°16' E 001°50'.

Length 116 m; draft 6.4 m.

Type: Ship. MMSI: 266009000.

Date/timePositionNaut miles runAvg speedWind from/ knotsBaromVisibWave heightAir tempDewpointWater temp
2014-Dec-20 05:33N 51°16' E 001°50'1212.1
2014-Dec-20 04:34N 51°27' E 001°60'1110.7
2014-Dec-20 03:34N 51°35' E 002°11'11 9.9
2014-Dec-20 02:26N 51°43' E 002°23'50 8.2
2014-Dec-19 20:15N 52°03' E 003°38'7 9.8
2014-Dec-19 19:33N 52°04' E 003°49'1010.3
2014-Dec-19 18:33N 51°59' E 004°04'5 5.1
2014-Dec-19 17:33N 51°57' E 004°11'7 6.7
2014-Dec-19 16:33N 51°53' E 004°21'0 0.0
2014-Dec-19 15:33N 51°53' E 004°21'0 0.0
2014-Dec-19 14:33N 51°53' E 004°21'0 0.0
2014-Dec-19 13:33N 51°53' E 004°21'0 0.0
2014-Dec-19 12:33N 51°53' E 004°21'0 0.0
2014-Dec-19 11:33N 51°53' E 004°21'0 0.0
2014-Dec-19 10:33N 51°53' E 004°21'0 0.0
2014-Dec-19 09:33N 51°53' E 004°21'0 0.0
2014-Dec-19 08:33N 51°53' E 004°21'0 0.0
2014-Dec-19 07:33N 51°53' E 004°21'0 0.0
2014-Dec-19 06:34N 51°53' E 004°21'0 0.0
2014-Dec-19 05:33N 51°53' E 004°21'0 0.0
2014-Dec-19 04:33N 51°53' E 004°21'0 0.0
2014-Dec-19 03:33N 51°53' E 004°21'0 0.0
2014-Dec-19 02:33N 51°53' E 004°21'0 0.0
2014-Dec-19 01:33N 51°53' E 004°21'0 0.0
2014-Dec-19 00:33N 51°53' E 004°21'0 0.0
2014-Dec-18 23:33N 51°53' E 004°21'0 0.0
2014-Dec-18 22:33N 51°53' E 004°21'0 0.0
2014-Dec-18 21:33N 51°53' E 004°21'0 0.0
2014-Dec-18 20:33N 51°53' E 004°21'0 0.0
2014-Dec-18 19:33N 51°53' E 004°21'0 0.0
2014-Dec-18 18:33N 51°53' E 004°21'4 4.2
2014-Dec-18 17:33N 51°55' E 004°14'1111.4
2014-Dec-18 16:33N 52°00' E 003°58'15 2.1
2014-Dec-18 09:09N 51°56' E 003°34'0 0.0
2014-Dec-18 08:30N 51°56' E 003°34'0 0.0
2014-Dec-18 07:33N 51°56' E 003°34'0 0.1
2014-Dec-18 06:33N 51°56' E 003°34'1 0.2
2014-Dec-18 03:10N 51°56' E 003°33'5311.1
2014-Dec-17 22:25N 51°32' E 002°18'1112.2
2014-Dec-17 21:30N 51°23' E 002°07'1112.1
2014-Dec-17 20:34N 51°12' E 002°01'1312.5
2014-Dec-17 19:33N 51°05' E 001°45'1312.6
2014-Dec-17 18:33N 50°57' E 001°30'  
2014-Dec-13 22:04N 39°11' W 009°52'4 8.7
2014-Dec-13 21:33N 39°06' W 009°52'10 8.9
2014-Dec-13 20:24N 38°56' W 009°52'8 9.1
2014-Dec-13 19:33N 38°48' W 009°52'9 9.2
2014-Dec-13 18:33N 38°39' W 009°50'10 9.8
2014-Dec-13 17:33N 38°30' W 009°47'1010.3
2014-Dec-13 16:32N 38°19' W 009°44'1210.5
2014-Dec-13 15:23N 38°08' W 009°41'1910.2
2014-Dec-13 13:31N 37°49' W 009°36'1110.4
2014-Dec-13 12:26N 37°38' W 009°34'  
Track history (hours):
 
Tides and Currents Weather Stations Pressure Air Temp Water Temp Dewpoint Dewpoint Depression Visibility Wind Speed Wind Dir Waves Ship Positions

Bitflower

Last reported at 2014-Dec-20 05:33 UTC. Time now 2014-Dec-20 06:35 UTC.
Position N 51°16' E 001°50'.

Length 116 m; draft 6.4 m.

Type: Ship. MMSI: 266009000.

Date/timePositionNaut miles runAvg speedWind from/ knotsBaromVisibWave heightAir tempDewpointWater temp
2014-Dec-20 05:33N 51°16' E 001°50'1212.1
2014-Dec-20 04:34N 51°27' E 001°60'1110.7
2014-Dec-20 03:34N 51°35' E 002°11'11 9.9
2014-Dec-20 02:26N 51°43' E 002°23'50 8.2
2014-Dec-19 20:15N 52°03' E 003°38'7 9.8
2014-Dec-19 19:33N 52°04' E 003°49'1010.3
2014-Dec-19 18:33N 51°59' E 004°04'5 5.1
2014-Dec-19 17:33N 51°57' E 004°11'7 6.7
2014-Dec-19 16:33N 51°53' E 004°21'0 0.0
2014-Dec-19 15:33N 51°53' E 004°21'0 0.0
2014-Dec-19 14:33N 51°53' E 004°21'0 0.0
2014-Dec-19 13:33N 51°53' E 004°21'0 0.0
2014-Dec-19 12:33N 51°53' E 004°21'0 0.0
2014-Dec-19 11:33N 51°53' E 004°21'0 0.0
2014-Dec-19 10:33N 51°53' E 004°21'0 0.0
2014-Dec-19 09:33N 51°53' E 004°21'0 0.0
2014-Dec-19 08:33N 51°53' E 004°21'0 0.0
2014-Dec-19 07:33N 51°53' E 004°21'0 0.0
2014-Dec-19 06:34N 51°53' E 004°21'0 0.0
2014-Dec-19 05:33N 51°53' E 004°21'0 0.0
2014-Dec-19 04:33N 51°53' E 004°21'0 0.0
2014-Dec-19 03:33N 51°53' E 004°21'0 0.0
2014-Dec-19 02:33N 51°53' E 004°21'0 0.0
2014-Dec-19 01:33N 51°53' E 004°21'0 0.0
2014-Dec-19 00:33N 51°53' E 004°21'0 0.0
2014-Dec-18 23:33N 51°53' E 004°21'0 0.0
2014-Dec-18 22:33N 51°53' E 004°21'0 0.0
2014-Dec-18 21:33N 51°53' E 004°21'0 0.0
2014-Dec-18 20:33N 51°53' E 004°21'0 0.0
2014-Dec-18 19:33N 51°53' E 004°21'0 0.0
2014-Dec-18 18:33N 51°53' E 004°21'4 4.2
2014-Dec-18 17:33N 51°55' E 004°14'1111.4
2014-Dec-18 16:33N 52°00' E 003°58'15 2.1
2014-Dec-18 09:09N 51°56' E 003°34'0 0.0
2014-Dec-18 08:30N 51°56' E 003°34'0 0.0
2014-Dec-18 07:33N 51°56' E 003°34'0 0.1
2014-Dec-18 06:33N 51°56' E 003°34'1 0.2
2014-Dec-18 03:10N 51°56' E 003°33'5311.1
2014-Dec-17 22:25N 51°32' E 002°18'1112.2
2014-Dec-17 21:30N 51°23' E 002°07'1112.1
2014-Dec-17 20:34N 51°12' E 002°01'1312.5
2014-Dec-17 19:33N 51°05' E 001°45'1312.6
2014-Dec-17 18:33N 50°57' E 001°30'  
2014-Dec-13 22:04N 39°11' W 009°52'4 8.7
2014-Dec-13 21:33N 39°06' W 009°52'10 8.9
2014-Dec-13 20:24N 38°56' W 009°52'8 9.1
2014-Dec-13 19:33N 38°48' W 009°52'9 9.2
2014-Dec-13 18:33N 38°39' W 009°50'10 9.8
2014-Dec-13 17:33N 38°30' W 009°47'1010.3
2014-Dec-13 16:32N 38°19' W 009°44'1210.5
2014-Dec-13 15:23N 38°08' W 009°41'1910.2
2014-Dec-13 13:31N 37°49' W 009°36'1110.4
2014-Dec-13 12:26N 37°38' W 009°34'  

Dump ship's entire track history